Airfield :
LOGIN :

Register | Disclaimer

   EN    FR    IT 

 










Legend :    VFR   Marginal VFR   IFR   Intensive IFR   Very Intensive IFR
Visi :
Ceiling :
>= 8 km
>= 3000ft
5 to 8 km
1000 to 3000 ft
1500m to 5 km
500 to 1000 ft
800 to 1500m
200 to 500 ft
< 800m
< 200 ft
Symbols :   Thunderstorms  Fog  Heavy snow  Heavy precipitations  Wind > 20 kt
SIGMETs :     Misc.  Thunderstorms  Icing  Turbulence  Mountain Waves  Volcanic Ashes






- Airport Elevation : 62 ft
- IATA code : TAN


GMTT - Tanger Ibn Batouta

CURRENT METAR :
  • 140900Z 27016KT 9999 SCT023 BKN033 17/11 Q1015 NOSIG

EXPIRED METARs :
  • 140830Z 29014KT 9999 BKN023 BKN033 16/10 Q1015 NOSIG
  • 140800Z 29014KT 9999 BKN023 BKN036 16/11 Q1015 NOSIG
  • 140730Z 31013KT 9999 BKN023 BKN043 15/11 Q1015 NOSIG
  • 140700Z 31011KT 9999 BKN023 BKN030 15/10 Q1015 NOSIG
  • 140630Z 30008KT 270V330 9999 BKN016 BKN030 15/11 Q1014 NOSIG

TAF TAF GMTT
Valid from the 14 at 06:00 until the 15 at 12:00 UTC


140500Z 1406/1512 31009KT 9999 BKN016
TEMPO 1412/1419 30017KT 3000 SHRA SCT008 SCT010TCU
PROB40 1418/1501 30014KT 4000 RA



MET'MAP, your aeronautical weather chart ! - Copyright ORBIFLY December 2007 - Disclaimer

ORBIFLY MET'MAP TEAM :

Programming & Development : Alexandra Zaïnal
Concept & Development : Baudouin d'Aumeries
Co-Development & Prog : Marc-Olivier Méhu
Technical & hardware support : Manuel Goepfert

Contact : metmap@orbifly.com




SOURCES & CREDITS :

   NOAA